Country
Station

 

Weather  for  Grand Rapids, Kent County International Airport  -  United States    United States

  
12 °C (54 °F)
    
 
 

Current METAR for Grand Rapids, Kent County International Airport is :

KGRR 211453Z 11014KT 10SM BKN170 BKN220 12/03 A3017 RMK AO2 SLP221 T01220033 58002

 

This is a report for Grand Rapids, Kent County International Airport - United States.
 
The report was made 57 minutes ago, at 14:53 UTC .
The wind was blowing at a speed of 7.2 meters per second (16.1 miles per hour) from east/southeast (110°).
 
The temperature was 12 °C (54 °F), with a dew-point at 3 °C (37 °F).
The atmospheric pressure was 1022 hPa (30.17 inHg).
The relative humidity was 54.0%.
 
There were broken clouds at a height of 5182 meters (17000 feet) and broken clouds at a height of 6706 meters (22000 feet).
 
The overall visibility was 16.1 kilometers (10.0 miles).
 

 
 
 
 

Country :   A   B   C   D   E   F   G   H   I   J   K   L   M   N   O   P   Q   R   S   T   U   V   W   Y   Z

 

Site Info  |  Disclaimer  |  Credits  |  Privacy
Contact us  |  Add to favorites
© 2013-2019 METARs - All rights reserved